Time;durP1;ratioP1;P1;durP2;ratioP2;P2;SDS_P1;SDS_P2;PMS_P1;PMS_P2;Temp;Humidity;BMP_temperature;BMP_pressure;BME280_temperature;BME280_humidity;BME280_pressure;Samples;Min_cycle;Max_cycle;Signal;HPM_P1;HPM_P2
2022/07/06 00:01:43;;;;;;;4.50;2.13;;;16.50;99.90;;;;;;5036386;28;20340;-78
2022/07/06 00:04:09;;;;;;;5.60;2.20;;;16.50;99.90;;;;;;5036121;28;20450;-78
2022/07/06 00:06:35;;;;;;;3.20;1.77;;;16.40;99.90;;;;;;5035490;28;20888;-79
2022/07/06 00:09:02;;;;;;;3.97;2.70;;;16.30;99.90;;;;;;5035962;28;20275;-78
2022/07/06 00:11:28;;;;;;;4.13;1.93;;;16.30;99.90;;;;;;5036157;28;20845;-79
2022/07/06 00:13:54;;;;;;;3.77;2.20;;;16.30;99.90;;;;;;5035803;28;20429;-78
2022/07/06 00:16:22;;;;;;;2.90;2.13;;;16.20;99.90;;;;;;5035648;28;20222;-79
2022/07/06 00:18:48;;;;;;;3.77;2.30;;;16.20;99.90;;;;;;5035627;28;20438;-79
2022/07/06 00:21:14;;;;;;;5.07;2.90;;;16.20;99.90;;;;;;5035869;28;20921;-78
2022/07/06 00:23:40;;;;;;;3.40;2.43;;;16.10;99.90;;;;;;5035684;28;20176;-80
2022/07/06 00:26:06;;;;;;;3.77;2.07;;;16.10;99.90;;;;;;5035304;28;20462;-78
2022/07/06 00:28:32;;;;;;;3.70;2.03;;;16.10;99.90;;;;;;5035630;28;20270;-78
2022/07/06 00:30:57;;;;;;;4.00;2.53;;;16.00;99.90;;;;;;5035391;28;20646;-79
2022/07/06 00:33:23;;;;;;;3.77;2.27;;;16.00;99.90;;;;;;5035451;28;20180;-79
2022/07/06 00:35:49;;;;;;;3.63;2.10;;;15.90;99.90;;;;;;5035123;28;20179;-79
2022/07/06 00:38:15;;;;;;;4.07;2.00;;;15.90;99.90;;;;;;5035380;28;20227;-78
2022/07/06 00:40:41;;;;;;;3.53;2.40;;;15.80;99.90;;;;;;5035193;28;20184;-79
2022/07/06 00:43:07;;;;;;;3.57;2.50;;;15.80;99.90;;;;;;5035042;28;20485;-79
2022/07/06 00:45:33;;;;;;;3.10;2.00;;;15.70;99.90;;;;;;5035113;28;20643;-78
2022/07/06 00:47:58;;;;;;;4.33;2.90;;;15.60;99.90;;;;;;5034876;28;20517;-78
2022/07/06 00:50:25;;;;;;;4.17;2.17;;;15.70;99.90;;;;;;5034854;28;20418;-79
2022/07/06 00:53:00;;;;;;;6.93;2.67;;;15.60;99.90;;;;;;5035034;28;20176;-78
2022/07/06 00:55:28;;;;;;;5.30;2.80;;;15.60;99.90;;;;;;5034959;28;20816;-78
2022/07/06 00:57:55;;;;;;;3.73;2.27;;;15.40;99.90;;;;;;5034676;28;20448;-78
2022/07/06 01:00:24;;;;;;;4.00;2.13;;;15.40;99.90;;;;;;5034714;28;20418;-79
2022/07/06 01:02:51;;;;;;;4.83;2.60;;;15.40;99.90;;;;;;5034884;28;20422;-79
2022/07/06 01:05:17;;;;;;;3.73;2.40;;;15.50;99.90;;;;;;5034702;28;20946;-78
2022/07/06 01:07:45;;;;;;;3.50;2.37;;;15.40;99.90;;;;;;5034373;28;20608;-78
2022/07/06 01:10:12;;;;;;;3.93;2.70;;;15.40;99.90;;;;;;5034676;28;20422;-79
2022/07/06 01:12:40;;;;;;;3.70;2.33;;;15.30;99.90;;;;;;5034613;28;20447;-78
2022/07/06 01:15:12;;;;;;;4.03;2.30;;;15.30;99.90;;;;;;5034522;28;20840;-78
2022/07/06 01:17:42;;;;;;;3.17;2.43;;;15.30;99.90;;;;;;5034043;28;20476;-78
2022/07/06 01:20:11;;;;;;;4.70;2.50;;;15.20;99.90;;;;;;5034263;28;20418;-78
2022/07/06 01:22:37;;;;;;;5.00;2.70;;;15.30;99.90;;;;;;5034885;28;20519;-79
2022/07/06 01:25:05;;;;;;;4.80;2.50;;;15.30;99.90;;;;;;5034393;28;20487;-79
2022/07/06 01:27:31;;;;;;;3.70;2.33;;;15.30;99.90;;;;;;5033870;28;20466;-78
2022/07/06 01:29:56;;;;;;;4.27;2.13;;;15.20;99.90;;;;;;5034353;28;20422;-79
2022/07/06 01:32:22;;;;;;;3.20;2.27;;;15.10;99.90;;;;;;5034447;28;20265;-79
2022/07/06 01:34:48;;;;;;;3.80;2.30;;;15.10;99.90;;;;;;5034285;28;20657;-79
2022/07/06 01:37:13;;;;;;;6.57;3.43;;;15.10;99.90;;;;;;5033913;28;20207;-79
2022/07/06 01:39:39;;;;;;;5.83;2.50;;;15.10;99.90;;;;;;5034271;28;20190;-79
2022/07/06 01:42:05;;;;;;;3.50;2.30;;;15.00;99.90;;;;;;5034115;28;20730;-79
2022/07/06 01:44:31;;;;;;;4.40;2.23;;;15.00;99.90;;;;;;5034135;28;20262;-78
2022/07/06 01:46:57;;;;;;;4.47;2.60;;;14.90;99.90;;;;;;5033645;28;20878;-78
2022/07/06 01:49:23;;;;;;;8.17;2.67;;;14.80;99.90;;;;;;5034270;28;20176;-79
2022/07/06 01:51:48;;;;;;;4.20;2.60;;;14.80;99.90;;;;;;5033932;28;20212;-79
2022/07/06 01:54:14;;;;;;;3.40;2.53;;;14.70;99.90;;;;;;5033972;28;20186;-79
2022/07/06 01:56:40;;;;;;;3.93;2.67;;;14.60;99.90;;;;;;5033381;28;20222;-78
2022/07/06 01:59:05;;;;;;;5.20;2.60;;;14.50;99.90;;;;;;5034032;28;20183;-78
2022/07/06 02:01:31;;;;;;;7.43;2.80;;;14.40;99.90;;;;;;5034127;28;20241;-78
2022/07/06 02:03:57;;;;;;;4.07;2.80;;;14.30;99.90;;;;;;5033967;28;20211;-79
2022/07/06 02:06:23;;;;;;;4.50;2.87;;;14.30;99.90;;;;;;5033341;28;20298;-79
2022/07/06 02:08:51;;;;;;;4.80;2.90;;;14.30;99.90;;;;;;5033875;28;20203;-79
2022/07/06 02:11:17;;;;;;;4.07;2.47;;;14.10;99.90;;;;;;5033686;28;20270;-78
2022/07/06 02:13:43;;;;;;;4.50;2.43;;;14.20;99.90;;;;;;5033820;28;20521;-78
2022/07/06 02:16:09;;;;;;;7.07;2.30;;;14.10;99.90;;;;;;5033356;28;20426;-79
2022/07/06 02:18:34;;;;;;;6.00;2.60;;;14.10;99.90;;;;;;5033526;28;20242;-79
2022/07/06 02:21:00;;;;;;;5.47;3.10;;;14.10;99.90;;;;;;5033806;28;20433;-78
2022/07/06 02:23:26;;;;;;;6.60;2.73;;;14.10;99.90;;;;;;5033656;28;20195;-78
2022/07/06 02:25:52;;;;;;;6.70;2.87;;;14.10;99.90;;;;;;5033149;28;20215;-79
2022/07/06 02:28:18;;;;;;;3.10;1.97;;;14.10;99.90;;;;;;5033512;28;20956;-78
2022/07/06 02:30:43;;;;;;;3.37;2.50;;;14.10;99.90;;;;;;5034922;28;20426;-78
2022/07/06 02:33:09;;;;;;;3.90;2.63;;;14.00;99.90;;;;;;5037564;28;20180;-78
2022/07/06 02:35:37;;;;;;;4.23;2.50;;;14.00;99.90;;;;;;5037216;28;20180;-79
2022/07/06 02:38:03;;;;;;;5.53;2.80;;;13.90;99.90;;;;;;5037413;28;20210;-79
2022/07/06 02:40:28;;;;;;;5.37;2.57;;;13.90;99.90;;;;;;5037193;28;20425;-79
2022/07/06 02:42:54;;;;;;;6.30;2.17;;;13.90;99.90;;;;;;5037418;28;20198;-79
2022/07/06 02:45:20;;;;;;;3.40;2.47;;;13.80;99.90;;;;;;5037424;28;20189;-79
2022/07/06 02:47:46;;;;;;;3.43;2.30;;;13.80;99.90;;;;;;5036800;28;20678;-79
2022/07/06 02:50:14;;;;;;;4.23;3.00;;;13.90;99.90;;;;;;5037534;28;20184;-79
2022/07/06 02:52:40;;;;;;;5.50;2.60;;;13.90;99.90;;;;;;5037151;28;20214;-79
2022/07/06 02:55:06;;;;;;;3.00;2.00;;;13.80;99.90;;;;;;5037085;28;20449;-79
2022/07/06 02:57:32;;;;;;;3.80;2.37;;;13.80;99.90;;;;;;5036636;28;20203;-79
2022/07/06 02:59:58;;;;;;;5.03;2.30;;;13.80;99.90;;;;;;5037139;28;20452;-79
2022/07/06 03:02:23;;;;;;;3.30;2.10;;;13.80;99.90;;;;;;5036851;28;20179;-79
2022/07/06 03:04:50;;;;;;;5.10;2.30;;;13.70;99.90;;;;;;5037042;28;20225;-79
2022/07/06 03:07:16;;;;;;;5.70;3.07;;;13.60;99.90;;;;;;5036436;28;20273;-79
2022/07/06 03:09:43;;;;;;;4.43;3.10;;;13.60;99.90;;;;;;5020572;28;20450;-79
2022/07/06 03:12:08;;;;;;;4.80;2.23;;;13.60;99.90;;;;;;5036870;28;20790;-79
2022/07/06 03:14:34;;;;;;;5.43;2.77;;;13.70;99.90;;;;;;5036804;28;20183;-79
2022/07/06 03:17:00;;;;;;;4.20;2.60;;;13.60;99.90;;;;;;5036320;28;20961;-78
2022/07/06 03:19:26;;;;;;;3.90;2.43;;;13.50;99.90;;;;;;5036741;28;20627;-79
2022/07/06 03:21:51;;;;;;;4.50;2.73;;;13.50;99.90;;;;;;5036638;28;20187;-79
2022/07/06 03:24:17;;;;;;;3.23;2.17;;;13.50;99.90;;;;;;5036548;28;20187;-78
2022/07/06 03:26:43;;;;;;;9.07;3.10;;;13.40;99.90;;;;;;5036020;28;20590;-78
2022/07/06 03:29:09;;;;;;;4.03;2.67;;;13.40;99.90;;;;;;5036598;28;20191;-78
2022/07/06 03:31:35;;;;;;;3.33;2.40;;;13.40;99.90;;;;;;5036369;28;20180;-79
2022/07/06 03:34:04;;;;;;;5.07;2.50;;;13.40;99.90;;;;;;5036482;28;20544;-78
2022/07/06 03:36:30;;;;;;;4.80;3.13;;;13.40;99.90;;;;;;5035970;28;20483;-79
2022/07/06 03:38:55;;;;;;;5.10;2.00;;;13.50;99.90;;;;;;5036463;28;20453;-79
2022/07/06 03:41:21;;;;;;;3.73;2.30;;;13.40;99.90;;;;;;5035698;28;21071;-78
2022/07/06 03:43:47;;;;;;;4.10;2.33;;;13.40;99.90;;;;;;5043927;23;20231;-83
2022/07/06 03:46:12;;;;;;;3.40;2.47;;;13.40;99.90;;;;;;5040164;28;20200;-82
2022/07/06 03:48:38;;;;;;;5.53;2.00;;;13.30;99.90;;;;;;5040889;28;20712;-81
2022/07/06 03:51:03;;;;;;;8.63;2.63;;;13.30;99.90;;;;;;5022392;28;20181;-80
2022/07/06 03:53:29;;;;;;;3.40;2.50;;;13.30;99.90;;;;;;5040282;28;20200;-81
2022/07/06 03:58:38;;;;;;;5.90;2.67;;;13.20;99.90;;;;;;5040484;28;20230;-81
2022/07/06 04:01:04;;;;;;;4.67;2.57;;;13.30;99.90;;;;;;5040251;28;20821;-81
2022/07/06 04:03:29;;;;;;;5.20;2.53;;;13.20;99.90;;;;;;5040221;28;20193;-81
2022/07/06 04:05:55;;;;;;;3.90;2.40;;;13.20;99.90;;;;;;5038898;28;20342;-82
2022/07/06 04:08:21;;;;;;;4.90;2.50;;;13.20;99.90;;;;;;5039184;28;20181;-81
2022/07/06 04:10:47;;;;;;;3.40;2.70;;;13.30;99.90;;;;;;5039156;28;20411;-81
2022/07/06 04:13:12;;;;;;;3.90;2.40;;;13.30;99.90;;;;;;5039104;28;20195;-80
2022/07/06 04:15:39;;;;;;;5.70;2.90;;;13.40;99.90;;;;;;5020260;28;20176;-80
2022/07/06 04:18:04;;;;;;;4.80;2.50;;;13.30;99.90;;;;;;5038030;28;20226;-82
2022/07/06 04:20:30;;;;;;;4.20;2.63;;;13.30;99.90;;;;;;5038354;28;20416;-80
2022/07/06 04:22:56;;;;;;;6.57;2.63;;;13.40;99.90;;;;;;5020054;28;20212;-81
2022/07/06 04:25:21;;;;;;;4.67;2.40;;;13.40;99.90;;;;;;5038296;28;20177;-82
2022/07/06 04:27:47;;;;;;;6.30;2.27;;;13.40;99.90;;;;;;5037967;28;20200;-82
2022/07/06 04:30:13;;;;;;;4.63;3.13;;;13.40;99.90;;;;;;5019067;28;20556;-81
2022/07/06 04:32:39;;;;;;;5.13;2.80;;;13.40;99.90;;;;;;5019190;28;20197;-81
2022/07/06 04:35:05;;;;;;;5.67;3.23;;;13.50;99.90;;;;;;5036739;28;20868;-81
2022/07/06 04:37:31;;;;;;;4.20;2.57;;;13.60;99.90;;;;;;5036661;28;20643;-81
2022/07/06 04:39:57;;;;;;;6.00;3.30;;;13.70;99.90;;;;;;5037160;28;20419;-81
2022/07/06 04:42:23;;;;;;;4.50;2.60;;;13.70;99.90;;;;;;5037835;28;20211;-80
2022/07/06 04:44:48;;;;;;;3.47;2.60;;;13.80;99.90;;;;;;5037108;28;20712;-80
2022/07/06 04:47:14;;;;;;;4.57;2.80;;;13.90;99.90;;;;;;5017827;28;20644;-81
2022/07/06 04:49:40;;;;;;;4.80;2.60;;;13.90;99.90;;;;;;5018479;28;20647;-81
2022/07/06 04:52:06;;;;;;;4.37;2.73;;;14.00;99.90;;;;;;5036385;28;20183;-80
2022/07/06 04:54:31;;;;;;;4.63;2.57;;;14.10;99.90;;;;;;5035640;28;20617;-81
2022/07/06 04:56:57;;;;;;;5.20;2.80;;;14.20;99.90;;;;;;5036243;28;20419;-81
2022/07/06 04:59:23;;;;;;;5.17;3.40;;;14.20;99.90;;;;;;5034237;28;20713;-81
2022/07/06 05:01:49;;;;;;;4.13;3.00;;;14.30;99.90;;;;;;5033573;28;20181;-81
2022/07/06 05:04:16;;;;;;;8.40;3.47;;;14.40;99.90;;;;;;5033416;28;20211;-81
2022/07/06 05:06:42;;;;;;;4.03;2.57;;;14.50;99.90;;;;;;5032741;28;20204;-80
2022/07/06 05:09:08;;;;;;;3.83;2.10;;;14.60;99.90;;;;;;5033392;28;20417;-81
2022/07/06 05:11:33;;;;;;;5.77;2.90;;;14.70;99.90;;;;;;5015564;28;20211;-80
2022/07/06 05:13:59;;;;;;;4.10;2.50;;;14.70;99.90;;;;;;5033007;28;20659;-81
2022/07/06 05:16:24;;;;;;;4.50;2.50;;;14.80;99.90;;;;;;5015208;28;20190;-81
2022/07/06 05:18:50;;;;;;;3.70;2.00;;;14.80;99.90;;;;;;5015134;28;20651;-81
2022/07/06 05:21:15;;;;;;;5.87;3.13;;;15.00;99.90;;;;;;5032954;28;20585;-80
2022/07/06 05:23:41;;;;;;;4.30;2.50;;;15.10;99.90;;;;;;5015210;28;20234;-81
2022/07/06 05:26:07;;;;;;;3.80;2.27;;;15.10;99.90;;;;;;5032691;28;20337;-81
2022/07/06 05:28:32;;;;;;;4.77;2.40;;;15.30;99.90;;;;;;5032663;28;20212;-81
2022/07/06 05:30:59;;;;;;;3.63;2.30;;;15.40;99.90;;;;;;5033129;28;20449;-81
2022/07/06 05:33:24;;;;;;;3.37;2.03;;;15.50;99.90;;;;;;5032779;28;20271;-80
2022/07/06 05:35:50;;;;;;;4.37;2.40;;;15.60;99.90;;;;;;5032895;28;20497;-81
2022/07/06 05:38:16;;;;;;;6.50;4.40;;;15.80;99.90;;;;;;5033142;28;20203;-81
2022/07/06 05:40:41;;;;;;;4.90;2.40;;;15.90;99.90;;;;;;5032903;28;20176;-80
2022/07/06 05:43:07;;;;;;;4.20;2.57;;;16.00;99.90;;;;;;5032716;28;20446;-80
2022/07/06 05:45:33;;;;;;;4.63;2.10;;;16.10;99.90;;;;;;5032614;28;20238;-80
2022/07/06 05:50:42;;;;;;;4.07;2.20;;;16.10;99.90;;;;;;5032929;28;20188;-80
2022/07/06 05:53:08;;;;;;;4.70;2.27;;;16.10;99.90;;;;;;5014691;28;20443;-81
2022/07/06 05:55:34;;;;;;;3.40;2.30;;;16.00;99.90;;;;;;5032454;28;20569;-80
2022/07/06 05:57:59;;;;;;;5.60;2.37;;;16.10;99.90;;;;;;5032245;28;20207;-80
2022/07/06 06:00:26;;;;;;;7.73;2.10;;;16.20;99.90;;;;;;5032160;28;20188;-80
2022/07/06 06:02:53;;;;;;;3.60;1.93;;;16.30;99.90;;;;;;5032423;28;20204;-80
2022/07/06 06:05:19;;;;;;;5.23;2.03;;;16.40;99.90;;;;;;5032333;28;20873;-81
2022/07/06 06:07:49;;;;;;;4.10;1.67;;;16.50;99.90;;;;;;5031989;28;20493;-81
2022/07/06 06:10:15;;;;;;;7.00;2.00;;;16.70;99.90;;;;;;5032202;28;20423;-80
2022/07/06 06:12:42;;;;;;;4.07;2.00;;;16.70;99.90;;;;;;5014688;28;20936;-81
2022/07/06 06:15:09;;;;;;;3.43;1.77;;;16.70;99.90;;;;;;5032600;28;20693;-81
2022/07/06 06:17:36;;;;;;;4.10;1.77;;;16.80;99.90;;;;;;5014404;28;20426;-83
2022/07/06 06:20:04;;;;;;;3.47;1.23;;;17.00;99.90;;;;;;5032179;28;20428;-84
2022/07/06 06:22:29;;;;;;;4.07;1.70;;;17.10;99.90;;;;;;5031815;28;20462;-84
2022/07/06 06:24:55;;;;;;;3.07;2.07;;;17.10;99.90;;;;;;5021301;28;20435;-84
2022/07/06 06:27:21;;;;;;;3.40;1.50;;;17.20;99.90;;;;;;5026647;28;20802;-85
2022/07/06 06:29:46;;;;;;;5.17;2.03;;;17.20;99.90;;;;;;5045709;28;20177;-84
2022/07/06 06:32:12;;;;;;;4.20;2.30;;;17.20;99.90;;;;;;5045293;28;20199;-84
2022/07/06 06:34:39;;;;;;;3.50;2.10;;;17.30;99.90;;;;;;5027017;28;20203;-84
2022/07/06 06:37:04;;;;;;;4.20;1.70;;;17.40;99.90;;;;;;5043503;28;20470;-85
2022/07/06 06:39:30;;;;;;;3.00;1.57;;;17.40;99.90;;;;;;5042884;28;20423;-84
2022/07/06 06:41:56;;;;;;;2.73;1.80;;;17.30;99.90;;;;;;5042844;28;20690;-84
2022/07/06 06:44:24;;;;;;;6.03;2.00;;;17.20;99.90;;;;;;5043939;28;20227;-85
2022/07/06 06:46:52;;;;;;;5.77;1.93;;;17.10;99.90;;;;;;5024881;28;20216;-84
2022/07/06 06:49:17;;;;;;;10.03;1.87;;;17.30;99.90;;;;;;5043121;28;20407;-84
2022/07/06 06:51:44;;;;;;;2.70;1.50;;;17.40;99.90;;;;;;5042948;28;20411;-85
2022/07/06 06:54:09;;;;;;;3.67;2.40;;;17.70;99.90;;;;;;5041491;28;20431;-84
2022/07/06 06:56:35;;;;;;;3.13;2.00;;;17.90;99.90;;;;;;5024374;28;20437;-84
2022/07/06 06:59:01;;;;;;;3.67;1.50;;;18.10;99.90;;;;;;5042577;28;20526;-84
2022/07/06 07:01:27;;;;;;;3.90;1.17;;;18.20;99.90;;;;;;5024166;28;20188;-84
2022/07/06 07:03:54;;;;;;;4.70;2.13;;;18.40;99.90;;;;;;5042631;28;20789;-81
2022/07/06 07:06:20;;;;;;;2.83;1.47;;;18.40;99.90;;;;;;5019255;28;20270;-81
2022/07/06 07:08:46;;;;;;;2.67;1.50;;;18.40;99.90;;;;;;5031730;28;20419;-81
2022/07/06 07:11:12;;;;;;;3.43;1.20;;;18.40;99.90;;;;;;5031548;28;20458;-81
2022/07/06 07:13:37;;;;;;;3.13;1.37;;;18.50;99.90;;;;;;5013796;28;20204;-81
2022/07/06 07:16:03;;;;;;;2.60;1.40;;;18.70;99.90;;;;;;5031652;28;20211;-81
2022/07/06 07:18:28;;;;;;;4.60;1.50;;;18.80;99.90;;;;;;5035185;28;20545;-80
2022/07/06 07:20:54;;;;;;;2.60;1.20;;;18.90;99.90;;;;;;5035129;28;20180;-81
2022/07/06 07:23:19;;;;;;;4.07;1.57;;;19.00;99.90;;;;;;5035110;28;20682;-81
2022/07/06 07:25:45;;;;;;;3.60;1.57;;;19.20;99.90;;;;;;5034391;28;20188;-80
2022/07/06 07:28:11;;;;;;;2.53;1.53;;;19.40;99.90;;;;;;5034758;28;20188;-81
2022/07/06 07:30:36;;;;;;;2.77;1.47;;;19.50;99.90;;;;;;5034806;28;20180;-81
2022/07/06 07:33:02;;;;;;;3.37;1.60;;;19.50;99.90;;;;;;5034723;28;20200;-82
2022/07/06 07:35:28;;;;;;;3.40;1.77;;;19.50;99.90;;;;;;5016965;28;20188;-80
2022/07/06 07:37:53;;;;;;;5.80;1.73;;;19.40;99.90;;;;;;5050864;28;20235;-81
2022/07/06 07:40:19;;;;;;;5.63;1.50;;;19.50;99.90;;;;;;5021975;28;20180;-81
2022/07/06 07:42:45;;;;;;;2.77;1.57;;;19.60;99.90;;;;;;5035707;28;20181;-81
2022/07/06 07:45:12;;;;;;;2.73;1.30;;;19.70;99.90;;;;;;5048989;28;20423;-82
2022/07/06 07:47:38;;;;;;;3.70;1.40;;;19.80;99.90;;;;;;5030745;28;20266;-83
2022/07/06 07:50:04;;;;;;;3.17;1.90;;;19.80;99.90;;;;;;5029361;28;20447;-82
2022/07/06 07:52:29;;;;;;;2.63;1.33;;;19.90;99.90;;;;;;5047457;28;20430;-81
2022/07/06 07:54:55;;;;;;;2.33;1.30;;;19.90;99.90;;;;;;5046971;28;20442;-82
2022/07/06 07:57:21;;;;;;;2.43;1.30;;;20.10;99.90;;;;;;5048305;28;20533;-82
2022/07/06 07:59:46;;;;;;;2.47;1.20;;;20.60;99.90;;;;;;5045371;28;20658;-83
2022/07/06 08:02:12;;;;;;;4.60;1.80;;;20.60;99.90;;;;;;5046729;28;20223;-82
2022/07/06 08:04:37;;;;;;;5.27;2.00;;;20.60;99.90;;;;;;5044589;28;20203;-82
2022/07/06 08:07:03;;;;;;;3.63;1.40;;;20.20;99.90;;;;;;5022879;28;20212;-81
2022/07/06 08:09:29;;;;;;;4.17;1.63;;;20.30;99.90;;;;;;5041762;28;20424;-81
2022/07/06 08:11:54;;;;;;;2.13;1.03;;;20.40;99.90;;;;;;5023445;28;20454;-81
2022/07/06 08:14:20;;;;;;;5.50;1.70;;;20.40;99.90;;;;;;5023537;28;20200;-82
2022/07/06 08:16:45;;;;;;;4.67;1.47;;;20.20;99.90;;;;;;5039434;28;20180;-81
2022/07/06 08:19:14;;;;;;;5.30;1.30;;;20.00;99.90;;;;;;5039864;28;20635;-82
2022/07/06 08:21:40;;;;;;;2.70;1.37;;;19.70;99.90;;;;;;5040978;28;20242;-81
2022/07/06 08:24:07;;;;;;;2.43;1.30;;;19.60;99.90;;;;;;5021867;28;20956;-83
2022/07/06 08:26:32;;;;;;;3.70;1.37;;;19.60;99.90;;;;;;5039728;28;20528;-82
2022/07/06 08:28:58;;;;;;;2.07;1.00;;;19.50;99.90;;;;;;5039638;28;20408;-82
2022/07/06 08:31:24;;;;;;;4.13;1.37;;;19.30;99.90;;;;;;5039635;28;20176;-81
2022/07/06 08:33:52;;;;;;;3.63;1.13;;;19.30;99.90;;;;;;5039231;28;20946;-82
2022/07/06 08:36:18;;;;;;;3.20;1.03;;;19.10;99.90;;;;;;5021093;28;20427;-81
2022/07/06 08:38:44;;;;;;;3.30;1.20;;;19.20;99.90;;;;;;5039559;28;20415;-82
2022/07/06 08:41:11;;;;;;;2.60;1.20;;;19.40;99.90;;;;;;5020929;28;20423;-81
2022/07/06 08:43:36;;;;;;;2.87;1.20;;;19.30;99.90;;;;;;5039361;28;20216;-81
2022/07/06 08:46:02;;;;;;;3.47;1.10;;;19.40;99.90;;;;;;5038007;28;20461;-81
2022/07/06 08:48:31;;;;;;;3.00;1.40;;;19.40;99.90;;;;;;5020342;28;20183;-81
2022/07/06 08:50:58;;;;;;;4.27;1.33;;;19.50;99.90;;;;;;5038399;28;20844;-81
2022/07/06 08:53:24;;;;;;;2.63;1.00;;;19.50;99.90;;;;;;5039381;28;20957;-81
2022/07/06 08:55:50;;;;;;;2.23;1.00;;;19.50;99.90;;;;;;5039117;28;20469;-81
2022/07/06 08:58:16;;;;;;;2.60;1.43;;;19.50;99.90;;;;;;5038262;28;20443;-82
2022/07/06 09:00:43;;;;;;;3.30;1.13;;;19.40;99.90;;;;;;5020128;28;20426;-81
2022/07/06 09:03:12;;;;;;;2.50;1.30;;;19.40;99.90;;;;;;5037525;28;20439;-82
2022/07/06 09:05:40;;;;;;;2.00;1.00;;;19.40;99.90;;;;;;5038157;28;20415;-82
2022/07/06 09:08:05;;;;;;;2.70;1.03;;;19.40;99.90;;;;;;5037470;28;21059;-81
2022/07/06 09:10:31;;;;;;;2.90;1.10;;;19.40;99.90;;;;;;5037407;28;20411;-82
2022/07/06 09:13:04;;;;;;;2.60;1.30;;;19.40;99.90;;;;;;5019087;28;20675;-81
2022/07/06 09:15:30;;;;;;;3.27;1.10;;;19.30;99.90;;;;;;5018526;28;20187;-81
2022/07/06 09:17:57;;;;;;;3.60;1.33;;;19.20;99.90;;;;;;5036167;28;20786;-81
2022/07/06 09:20:23;;;;;;;2.40;1.10;;;19.10;99.90;;;;;;5036829;28;20834;-80
2022/07/06 09:22:48;;;;;;;2.40;1.20;;;19.10;99.90;;;;;;5036476;28;20581;-82
2022/07/06 09:25:15;;;;;;;3.63;1.50;;;19.20;99.90;;;;;;5036060;28;20180;-81
2022/07/06 09:27:47;;;;;;;3.13;1.10;;;19.20;99.90;;;;;;5035810;28;20200;-81
2022/07/06 09:30:14;;;;;;;2.10;0.90;;;19.20;99.90;;;;;;5036151;28;20918;-81
2022/07/06 09:32:49;;;;;;;2.60;1.37;;;19.20;99.90;;;;;;5035961;28;20828;-81
2022/07/06 09:35:36;;;;;;;2.53;1.10;;;19.20;99.90;;;;;;5035559;28;20406;-81
2022/07/06 09:38:14;;;;;;;2.97;1.33;;;19.30;99.90;;;;;;5017463;28;20451;-82
2022/07/06 09:40:42;;;;;;;5.90;1.90;;;19.40;99.90;;;;;;5035396;28;20407;-81
2022/07/06 09:43:35;;;;;;;3.13;1.00;;;19.60;99.90;;;;;;5017389;28;20820;-81
2022/07/06 09:46:03;;;;;;;2.93;1.20;;;19.80;99.90;;;;;;5050744;23;21035;-77
2022/07/06 09:48:29;;;;;;;4.60;2.03;;;20.00;99.90;;;;;;5051623;28;20442;-77
2022/07/06 09:50:56;;;;;;;3.50;1.37;;;20.70;99.90;;;;;;5035362;28;20424;-77
2022/07/06 09:53:25;;;;;;;3.60;1.20;;;21.00;99.90;;;;;;5035319;28;20172;-77
2022/07/06 09:55:53;;;;;;;4.00;1.23;;;20.90;99.90;;;;;;5035419;28;20426;-77
2022/07/06 09:58:20;;;;;;;2.70;1.30;;;21.30;99.90;;;;;;5035654;28;20474;-77
2022/07/06 10:00:47;;;;;;;2.53;1.00;;;22.10;99.90;;;;;;5036306;28;20509;-77
2022/07/06 10:03:15;;;;;;;2.40;1.10;;;22.50;99.90;;;;;;5036568;28;20422;-78
2022/07/06 10:05:43;;;;;;;3.00;1.23;;;22.60;99.90;;;;;;5036257;28;20470;-77
2022/07/06 10:08:10;;;;;;;4.40;1.30;;;22.70;99.90;;;;;;5036350;28;21085;-77
2022/07/06 10:10:41;;;;;;;2.50;1.10;;;22.60;99.90;;;;;;5036764;28;20848;-77
2022/07/06 10:13:07;;;;;;;4.67;1.30;;;22.60;99.90;;;;;;5036424;28;20499;-77
2022/07/06 10:15:35;;;;;;;2.27;1.10;;;22.60;99.90;;;;;;5036876;28;20468;-77
2022/07/06 10:18:03;;;;;;;3.00;1.40;;;23.00;99.90;;;;;;5036373;28;20446;-77
2022/07/06 10:20:31;;;;;;;2.77;1.00;;;23.80;99.90;;;;;;5036318;28;20414;-77
2022/07/06 10:23:00;;;;;;;2.20;1.00;;;24.80;98.80;;;;;;5036578;28;20422;-78
2022/07/06 10:25:27;;;;;;;2.80;1.03;;;27.00;94.50;;;;;;5036484;28;20422;-78
2022/07/06 10:27:54;;;;;;;2.10;0.80;;;28.80;90.50;;;;;;5036571;28;20462;-78
2022/07/06 10:30:21;;;;;;;4.57;1.17;;;30.30;72.60;;;;;;5037592;28;20410;-78
2022/07/06 10:32:52;;;;;;;2.20;1.00;;;31.50;64.90;;;;;;5037021;28;20419;-78
2022/07/06 10:35:19;;;;;;;3.23;0.90;;;32.00;56.60;;;;;;5037274;28;20410;-78
2022/07/06 10:37:46;;;;;;;3.03;1.03;;;32.10;53.10;;;;;;5036665;28;20450;-78
2022/07/06 10:43:00;;;;;;;2.30;0.90;;;31.50;50.90;;;;;;5054703;28;20824;-78
2022/07/06 10:45:29;;;;;;;2.00;0.80;;;30.80;48.70;;;;;;5035859;28;20441;-78
2022/07/06 10:48:11;;;;;;;2.40;1.20;;;30.20;48.90;;;;;;5035478;28;20465;-78
2022/07/06 10:51:02;;;;;;;2.53;1.10;;;29.50;49.70;;;;;;5035558;28;20517;-78
2022/07/06 10:53:34;;;;;;;2.10;1.00;;;29.10;48.10;;;;;;5039221;28;20414;-78
2022/07/06 10:56:08;;;;;;;2.40;1.10;;;28.30;48.90;;;;;;5039012;28;20956;-78
2022/07/06 10:58:53;;;;;;;4.63;1.43;;;27.70;50.50;;;;;;5039095;28;20490;-78
2022/07/06 11:01:20;;;;;;;2.40;1.10;;;27.00;53.20;;;;;;5038961;28;20417;-77
2022/07/06 11:03:58;;;;;;;2.63;0.97;;;26.90;54.80;;;;;;5038863;28;20414;-78
2022/07/06 11:06:25;;;;;;;2.40;1.40;;;26.80;54.10;;;;;;5038934;28;20461;-77
2022/07/06 11:08:59;;;;;;;3.33;1.23;;;26.70;57.60;;;;;;5038949;28;20468;-78
2022/07/06 11:11:48;;;;;;;4.13;1.40;;;26.60;55.40;;;;;;5039265;28;20449;-78
2022/07/06 11:14:17;;;;;;;3.60;1.30;;;25.90;56.30;;;;;;5039252;28;20508;-77
2022/07/06 11:16:49;;;;;;;3.47;1.73;;;25.20;57.40;;;;;;5038555;28;20418;-77
2022/07/06 11:19:20;;;;;;;3.17;1.30;;;24.80;58.90;;;;;;5038159;28;20671;-77
2022/07/06 11:21:56;;;;;;;2.60;1.10;;;24.30;59.80;;;;;;5037257;28;20422;-77
2022/07/06 11:24:28;;;;;;;4.77;1.30;;;24.10;63.60;;;;;;5037621;28;20426;-77
2022/07/06 11:26:56;;;;;;;2.10;1.07;;;23.90;63.40;;;;;;5036890;28;20477;-77
2022/07/06 11:29:23;;;;;;;3.70;1.37;;;23.60;63.90;;;;;;5037156;28;20925;-77
2022/07/06 11:31:52;;;;;;;3.60;1.30;;;23.50;64.70;;;;;;5036904;28;20677;-77
2022/07/06 11:34:27;;;;;;;3.33;1.30;;;23.50;65.30;;;;;;5037255;28;20418;-77
2022/07/06 11:37:00;;;;;;;3.00;1.47;;;23.40;66.70;;;;;;5036816;28;20476;-77
2022/07/06 11:39:30;;;;;;;2.60;1.47;;;23.50;70.10;;;;;;5037462;28;20418;-77
2022/07/06 11:41:57;;;;;;;5.13;1.50;;;23.60;69.60;;;;;;5037575;28;20414;-77
2022/07/06 11:44:23;;;;;;;3.33;1.40;;;23.90;71.00;;;;;;5037569;28;20425;-77
2022/07/06 11:46:49;;;;;;;2.20;1.10;;;24.10;72.00;;;;;;5037011;28;20473;-77
2022/07/06 11:49:15;;;;;;;3.20;1.10;;;24.30;68.80;;;;;;5037582;28;20602;-77
2022/07/06 11:51:42;;;;;;;2.43;1.47;;;24.20;67.00;;;;;;5036893;28;20418;-77
2022/07/06 11:54:13;;;;;;;3.80;1.33;;;23.90;66.70;;;;;;5036885;28;20414;-77
2022/07/06 11:56:49;;;;;;;2.33;1.10;;;24.00;68.80;;;;;;5036199;28;20414;-77
2022/07/06 11:59:16;;;;;;;2.40;1.20;;;24.10;65.50;;;;;;5036637;28;20848;-77
2022/07/06 12:01:44;;;;;;;5.50;1.50;;;24.30;64.70;;;;;;5036264;28;21020;-77
2022/07/06 12:04:10;;;;;;;3.00;1.20;;;24.60;63.30;;;;;;5036496;28;20433;-77
2022/07/06 12:06:37;;;;;;;3.13;1.70;;;24.70;66.20;;;;;;5035990;28;21003;-77
2022/07/06 12:09:04;;;;;;;2.50;1.20;;;24.80;63.20;;;;;;5036258;28;20454;-77
2022/07/06 12:11:33;;;;;;;2.93;1.10;;;24.80;62.50;;;;;;5036208;28;20777;-77
2022/07/06 12:14:02;;;;;;;2.60;1.30;;;24.40;60.00;;;;;;5036057;28;20452;-77
2022/07/06 12:16:36;;;;;;;2.97;1.50;;;24.00;60.20;;;;;;5035984;28;20437;-77
2022/07/06 12:19:03;;;;;;;2.40;1.30;;;23.50;61.10;;;;;;5036322;28;20941;-77
2022/07/06 12:21:30;;;;;;;5.30;1.40;;;23.20;61.60;;;;;;5035703;28;20422;-77
2022/07/06 12:23:56;;;;;;;2.50;1.37;;;22.80;63.80;;;;;;5035723;28;20909;-77
2022/07/06 12:26:25;;;;;;;3.30;1.83;;;22.80;64.30;;;;;;5035495;28;20462;-77
2022/07/06 12:29:07;;;;;;;3.17;1.50;;;22.80;67.70;;;;;;5035844;28;20438;-77
2022/07/06 12:31:41;;;;;;;2.30;1.20;;;23.00;68.90;;;;;;5036456;28;20904;-77
2022/07/06 12:34:36;;;;;;;2.90;1.37;;;23.50;70.00;;;;;;5036706;28;20425;-77
2022/07/06 12:37:09;;;;;;;3.83;1.40;;;23.90;66.70;;;;;;5035621;28;20541;-77
2022/07/06 12:39:49;;;;;;;3.47;2.40;;;24.00;65.80;;;;;;5035936;28;20838;-77
2022/07/06 12:42:16;;;;;;;3.97;1.13;;;24.30;65.60;;;;;;5035722;28;20464;-77
2022/07/06 12:44:48;;;;;;;2.47;1.30;;;24.30;67.50;;;;;;5035932;28;20426;-77
2022/07/06 12:47:21;;;;;;;2.87;1.27;;;24.20;61.00;;;;;;5035841;28;20498;-77
2022/07/06 12:49:47;;;;;;;3.00;1.23;;;24.20;62.20;;;;;;5036637;28;20834;-77
2022/07/06 12:52:15;;;;;;;2.13;1.03;;;24.20;67.30;;;;;;5035806;28;20921;-77
2022/07/06 12:54:49;;;;;;;3.63;1.13;;;24.20;62.80;;;;;;5035626;28;20422;-77
2022/07/06 12:57:28;;;;;;;4.90;1.30;;;24.40;65.10;;;;;;5035611;28;21037;-77